Ndola, Zambia
Current Conditions -  °F | °C
As of 3:00 AM on Sunday 26 Oct 2014 (Local Time) from FVHA Reporting Station
Clear Clear  
Wind Chill: 64°   Ceiling: Unl
Heat Index: 64°   Visibility: 6mi
Dew Point: 57°   Wind: 8mph
Humidity: 77%   Direction: 140°SE
Pressure: 30.18"   Gusts: NA
Location:  12.97°S, 28.64°E
Report Text: FVHA 260100Z 14007KT CAVOK 18/14 Q1022
Loading
Personal Weather Stations






























Interactive Weather Map
Tropical Storm Tracking
New forecast layout! Learn more

10-Day Weather Forecast

Advertisements
Track Severe Weather on mobile